createdAt,value
2016-04-23T00:00:25.185Z,18.86
2016-04-23T00:01:25.235Z,18.9
2016-04-23T00:02:25.269Z,18.86
2016-04-23T00:03:25.318Z,18.81
2016-04-23T00:04:25.383Z,18.92
2016-04-23T00:05:25.418Z,18.83
2016-04-23T00:06:25.483Z,18.88
2016-04-23T00:07:25.548Z,18.9
2016-04-23T00:08:25.598Z,18.81
2016-04-23T00:09:25.646Z,18.83
2016-04-23T00:10:25.557Z,18.8
2016-04-23T00:11:25.746Z,18.89
2016-04-23T00:12:25.780Z,18.83
2016-04-23T00:13:25.845Z,18.81
2016-04-23T00:14:25.910Z,18.83
2016-04-23T00:15:25.945Z,18.81
2016-04-23T00:16:26.009Z,18.84
2016-04-23T00:17:26.043Z,18.86
2016-04-23T00:18:26.125Z,18.84
2016-04-23T00:19:26.159Z,18.86
2016-04-23T00:20:26.192Z,18.83
2016-04-23T00:21:26.258Z,18.86
2016-04-23T00:22:26.307Z,18.78
2016-04-23T00:23:26.356Z,18.83
2016-04-23T00:24:26.406Z,18.86
2016-04-23T00:25:26.472Z,18.88
2016-04-23T00:26:26.505Z,18.89
2016-04-23T00:27:26.399Z,18.9
2016-04-23T00:28:26.620Z,18.78
2016-04-23T00:29:26.654Z,18.81
2016-04-23T00:30:26.719Z,18.88
2016-04-23T00:31:26.769Z,18.83
2016-04-23T00:32:26.819Z,18.77
2016-04-23T00:33:26.899Z,18.84
2016-04-23T00:34:26.933Z,18.81
2016-04-23T00:35:26.967Z,18.78
2016-04-23T00:36:27.032Z,18.75
2016-04-23T00:37:27.097Z,18.75
2016-04-23T00:38:27.132Z,18.83
2016-04-23T00:39:27.181Z,18.78
2016-04-23T00:40:27.246Z,18.74
2016-04-23T00:41:27.265Z,18.74
2016-04-23T00:42:27.345Z,18.83
2016-04-23T00:43:27.395Z,18.77
2016-04-23T00:44:27.460Z,18.81
2016-04-23T00:45:27.494Z,18.84
2016-04-23T00:46:27.543Z,18.78
2016-04-23T00:47:27.624Z,18.78
2016-04-23T00:48:27.627Z,18.83
2016-04-23T00:49:27.708Z,18.77
2016-04-23T00:50:27.742Z,18.71
2016-04-23T00:51:27.791Z,18.83
2016-04-23T00:52:27.857Z,18.81
2016-04-23T00:53:27.890Z,18.78
2016-04-23T00:54:27.956Z,18.78
2016-04-23T00:55:28.005Z,18.74
2016-04-23T00:56:28.055Z,18.89
2016-04-23T00:57:28.120Z,18.73
2016-04-23T00:58:28.169Z,18.73
2016-04-23T00:59:28.203Z,18.81
2016-04-23T01:00:28.269Z,18.8
2016-04-23T01:01:28.334Z,18.71
2016-04-23T01:02:28.383Z,18.88
2016-04-23T01:03:28.416Z,18.8
2016-04-23T01:04:28.466Z,18.74
2016-04-23T01:05:28.502Z,18.71
2016-04-23T01:06:28.566Z,18.78
2016-04-23T01:07:28.631Z,18.8
2016-04-23T01:08:28.681Z,18.71
2016-04-23T01:09:28.730Z,18.8
2016-04-23T01:10:28.765Z,18.8
2016-04-23T01:11:28.829Z,18.78
2016-04-23T01:12:28.880Z,18.74
2016-04-23T01:13:28.773Z,18.81
2016-04-23T01:14:28.993Z,18.71
2016-04-23T01:15:29.028Z,18.8
2016-04-23T01:16:28.905Z,18.71
2016-04-23T01:17:28.377Z,18.81
2016-04-23T01:18:29.192Z,18.71
2016-04-23T01:19:29.226Z,18.77
2016-04-23T01:20:29.292Z,18.73
2016-04-23T01:21:29.341Z,18.77
2016-04-23T01:22:29.390Z,18.7
2016-04-23T01:23:29.455Z,18.74
2016-04-23T01:24:29.474Z,18.71
2016-04-23T01:25:29.539Z,18.74
2016-04-23T01:26:29.620Z,18.68
2016-04-23T01:27:29.638Z,18.78
2016-04-23T01:28:29.688Z,18.81
2016-04-23T01:29:29.753Z,18.7
2016-04-23T01:30:29.786Z,18.78
2016-04-23T01:31:29.867Z,18.83
2016-04-23T01:32:29.902Z,18.7
2016-04-23T01:33:29.952Z,18.74
2016-04-23T01:34:30.016Z,18.68
2016-04-23T01:35:30.050Z,18.74
2016-04-23T01:36:30.100Z,18.74
2016-04-23T01:37:30.165Z,18.78
2016-04-23T01:38:30.199Z,18.74
2016-04-23T01:39:30.249Z,18.74
2016-04-23T01:40:30.313Z,18.77
2016-04-23T01:41:30.363Z,18.75
2016-04-23T01:42:30.413Z,18.62
2016-04-23T01:43:30.478Z,18.71
2016-04-23T01:44:30.543Z,18.74
2016-04-23T01:45:30.562Z,18.73
2016-04-23T01:46:30.627Z,18.74
2016-04-23T01:47:30.692Z,18.66
2016-04-23T01:48:30.726Z,18.68
2016-04-23T01:49:30.791Z,18.73
2016-04-23T01:50:30.809Z,18.73
2016-04-23T01:51:30.875Z,18.7
2016-04-23T01:52:30.939Z,18.68
2016-04-23T01:53:30.974Z,18.66
2016-04-23T01:54:31.023Z,18.68
2016-04-23T01:55:31.103Z,18.7
2016-04-23T01:56:31.123Z,18.68
2016-04-23T01:57:31.172Z,18.65
2016-04-23T01:58:31.237Z,18.68
2016-04-23T01:59:31.302Z,18.73
2016-04-23T02:00:31.353Z,18.66
2016-04-23T02:01:31.370Z,18.68
2016-04-23T02:02:31.450Z,18.63
2016-04-23T02:03:31.500Z,18.6
2016-04-23T02:04:31.534Z,18.55
2016-04-23T02:05:31.584Z,18.68
2016-04-23T02:06:31.665Z,18.75
2016-04-23T02:07:31.699Z,18.65
2016-04-23T02:08:31.733Z,18.59
2016-04-23T02:09:31.814Z,18.68
2016-04-23T02:10:31.863Z,18.63
2016-04-23T02:11:31.943Z,18.62
2016-04-23T02:12:31.947Z,18.66
2016-04-23T02:13:32.012Z,18.73
2016-04-23T02:14:32.062Z,18.59
2016-04-23T02:15:32.095Z,18.65
2016-04-23T02:16:32.145Z,18.56
2016-04-23T02:17:32.226Z,18.65
2016-04-23T02:18:32.259Z,18.6
2016-04-23T02:19:32.293Z,18.65
2016-04-23T02:20:32.359Z,18.66
2016-04-23T02:21:32.409Z,18.65
2016-04-23T02:22:32.452Z,18.62
2016-04-23T02:23:32.533Z,18.65
2016-04-23T02:24:32.583Z,18.65
2016-04-23T02:25:32.600Z,18.6
2016-04-23T02:26:32.666Z,18.63
2016-04-23T02:27:32.746Z,18.62
2016-04-23T02:28:32.766Z,18.6
2016-04-23T02:29:32.814Z,18.66
2016-04-23T02:30:32.896Z,18.6
2016-04-23T02:31:32.914Z,18.62
2016-04-23T02:32:32.963Z,18.59
2016-04-23T02:33:33.029Z,18.65
2016-04-23T02:34:33.093Z,18.68
2016-04-23T02:35:33.143Z,18.6
2016-04-23T02:36:33.177Z,18.55
2016-04-23T02:37:33.258Z,18.59
2016-04-23T02:38:33.276Z,18.55
2016-04-23T02:39:33.341Z,18.62
2016-04-23T02:40:33.407Z,18.5
2016-04-23T02:41:33.440Z,18.6
2016-04-23T02:42:33.490Z,18.62
2016-04-23T02:43:33.556Z,18.58
2016-04-23T02:44:33.590Z,18.49
2016-04-23T02:45:33.639Z,18.58
2016-04-23T02:46:33.704Z,18.53
2016-04-23T02:47:33.738Z,18.52
2016-04-23T02:48:33.787Z,18.62
2016-04-23T02:49:33.853Z,18.55
2016-04-23T02:50:33.902Z,18.59
2016-04-23T02:51:33.968Z,18.53
2016-04-23T02:52:34.001Z,18.53
2016-04-23T02:53:34.082Z,18.55
2016-04-23T02:54:34.117Z,18.56
2016-04-23T02:55:34.150Z,18.55
2016-04-23T02:56:34.216Z,18.53
2016-04-23T02:57:34.280Z,18.52
2016-04-23T02:58:34.315Z,18.58
2016-04-23T02:59:34.442Z,18.52
2016-04-23T03:00:34.413Z,18.55
2016-04-23T03:01:34.479Z,18.52
2016-04-23T03:02:34.528Z,18.53
2016-04-23T03:03:34.547Z,18.53
2016-04-23T03:04:34.612Z,18.58
2016-04-23T03:05:33.927Z,18.52
2016-04-23T03:06:34.711Z,18.5
2016-04-23T03:07:34.760Z,18.56
2016-04-23T03:08:34.826Z,18.47
2016-04-23T03:09:34.876Z,18.45
2016-04-23T03:10:34.925Z,18.5
2016-04-23T03:11:34.990Z,18.52
2016-04-23T03:12:35.039Z,18.45
2016-04-23T03:13:35.074Z,18.52
2016-04-23T03:14:35.139Z,18.49
2016-04-23T03:15:35.172Z,18.47
2016-04-23T03:16:35.254Z,18.5
2016-04-23T03:17:35.318Z,18.47
2016-04-23T03:18:35.321Z,18.52
2016-04-23T03:19:35.387Z,18.49
2016-04-23T03:20:35.499Z,18.5
2016-04-23T03:21:35.486Z,18.44
2016-04-23T03:22:35.536Z,18.55
2016-04-23T03:23:35.584Z,18.49
2016-04-23T03:24:35.634Z,18.43
2016-04-23T03:25:35.668Z,18.49
2016-04-23T03:26:35.749Z,18.52
2016-04-23T03:27:35.815Z,18.43
2016-04-23T03:28:35.848Z,18.5
2016-04-23T03:29:35.898Z,18.49
2016-04-23T03:30:35.947Z,18.45
2016-04-23T03:31:36.013Z,18.47
2016-04-23T03:32:36.047Z,18.4
2016-04-23T03:33:36.096Z,18.41
2016-04-23T03:34:36.161Z,18.43
2016-04-23T03:35:36.211Z,18.41
2016-04-23T03:36:36.245Z,18.49
2016-04-23T03:37:36.310Z,18.43
2016-04-23T03:38:36.188Z,18.45
2016-04-23T03:39:36.410Z,18.43
2016-04-23T03:40:36.474Z,18.45
2016-04-23T03:41:36.523Z,18.43
2016-04-23T03:42:36.573Z,18.45
2016-04-23T03:43:36.608Z,18.4
2016-04-23T03:44:36.657Z,18.43
2016-04-23T03:45:36.723Z,18.41
2016-04-23T03:46:36.771Z,18.38
2016-04-23T03:47:36.806Z,18.43
2016-04-23T03:48:36.887Z,18.41
2016-04-23T03:49:36.920Z,18.38
2016-04-23T03:50:36.954Z,18.45
2016-04-23T03:51:37.051Z,18.41
2016-04-23T03:52:37.085Z,18.38
2016-04-23T03:53:37.134Z,18.41
2016-04-23T03:54:37.184Z,18.35
2016-04-23T03:55:37.221Z,18.41
2016-04-23T03:56:37.287Z,18.35
2016-04-23T03:57:37.352Z,18.43
2016-04-23T03:58:37.370Z,18.45
2016-04-23T03:59:37.436Z,18.34
2016-04-23T04:00:37.500Z,18.4
2016-04-23T04:01:37.519Z,18.4
2016-04-23T04:02:37.585Z,18.38
2016-04-23T04:03:37.634Z,18.4
2016-04-23T04:04:37.683Z,18.41
2016-04-23T04:05:37.717Z,18.4
2016-04-23T04:06:37.814Z,18.38
2016-04-23T04:07:37.848Z,18.4
2016-04-23T04:08:37.898Z,18.35
2016-04-23T04:09:37.947Z,18.33
2016-04-23T04:10:37.996Z,18.37
2016-04-23T04:11:38.031Z,18.33
2016-04-23T04:12:38.111Z,18.34
2016-04-23T04:13:38.145Z,18.33
2016-04-23T04:14:38.195Z,18.37
2016-04-23T04:15:38.119Z,18.37
2016-04-23T04:16:38.294Z,18.33
2016-04-23T04:17:38.344Z,18.34
2016-04-23T04:18:38.408Z,18.34
2016-04-23T04:19:38.489Z,18.34
2016-04-23T04:20:38.523Z,18.34
2016-04-23T04:21:38.572Z,18.37
2016-04-23T04:22:38.607Z,18.31
2016-04-23T04:23:38.672Z,18.28
2016-04-23T04:24:38.722Z,18.37
2016-04-23T04:25:38.787Z,18.34
2016-04-23T04:26:38.805Z,18.38
2016-04-23T04:27:38.870Z,18.34
2016-04-23T04:28:38.904Z,18.35
2016-04-23T04:29:38.954Z,18.29
2016-04-23T04:30:39.019Z,18.31
2016-04-23T04:31:39.069Z,18.34
2016-04-23T04:32:39.134Z,18.28
2016-04-23T04:33:39.152Z,18.34
2016-04-23T04:34:39.217Z,18.31
2016-04-23T04:35:39.282Z,18.34
2016-04-23T04:36:39.316Z,18.35
2016-04-23T04:37:38.615Z,18.34
2016-04-23T04:38:39.415Z,18.33
2016-04-23T04:39:39.465Z,18.33
2016-04-23T04:40:39.515Z,18.34
2016-04-23T04:41:39.595Z,18.29
2016-04-23T04:42:39.645Z,18.37
2016-04-23T04:43:39.678Z,18.28
2016-04-23T04:44:39.744Z,18.22
2016-04-23T04:45:39.794Z,18.34
2016-04-23T04:46:39.844Z,18.22
2016-04-23T04:47:39.862Z,18.37
2016-04-23T04:48:39.927Z,18.26
2016-04-23T04:49:40.008Z,18.31
2016-04-23T04:50:40.025Z,18.33
2016-04-23T04:51:40.075Z,18.26
2016-04-23T04:52:40.155Z,18.25
2016-04-23T04:53:40.190Z,18.28
2016-04-23T04:54:40.240Z,18.31
2016-04-23T04:55:40.336Z,18.28
2016-04-23T04:56:40.355Z,18.26
2016-04-23T04:57:40.404Z,18.25
2016-04-23T04:58:40.454Z,18.25
2016-04-23T04:59:40.331Z,18.25
2016-04-23T05:00:40.552Z,18.23
2016-04-23T05:01:40.602Z,18.29
2016-04-23T05:02:40.652Z,18.23
2016-04-23T05:03:39.968Z,18.25
2016-04-23T05:04:40.767Z,18.26
2016-04-23T05:05:40.801Z,18.31
2016-04-23T05:06:40.865Z,18.26
2016-04-23T05:07:40.932Z,18.26
2016-04-23T05:08:40.948Z,18.25
2016-04-23T05:09:41.014Z,18.26
2016-04-23T05:10:41.064Z,18.26
2016-04-23T05:11:41.129Z,18.28
2016-04-23T05:12:41.178Z,18.26
2016-04-23T05:13:41.197Z,18.28
2016-04-23T05:14:41.247Z,18.31
2016-04-23T05:15:41.328Z,18.26
2016-04-23T05:16:41.361Z,18.33
2016-04-23T05:17:41.411Z,18.2
2016-04-23T05:18:41.476Z,18.26
2016-04-23T05:19:41.526Z,18.25
2016-04-23T05:20:41.560Z,18.26
2016-04-23T05:21:41.625Z,18.23
2016-04-23T05:22:41.690Z,18.31
2016-04-23T05:23:41.724Z,18.29
2016-04-23T05:24:41.757Z,18.29
2016-04-23T05:25:41.807Z,18.25
2016-04-23T05:26:41.888Z,18.25
2016-04-23T05:27:41.922Z,18.2
2016-04-23T05:28:41.988Z,18.22
2016-04-23T05:29:42.037Z,18.28
2016-04-23T05:30:42.102Z,18.29
2016-04-23T05:31:42.120Z,18.23
2016-04-23T05:32:42.185Z,18.22
2016-04-23T05:33:42.251Z,18.2
2016-04-23T05:34:41.535Z,18.26
2016-04-23T05:35:42.334Z,18.2
2016-04-23T05:36:42.384Z,18.19
2016-04-23T05:37:42.449Z,18.19
2016-04-23T05:38:42.498Z,18.22
2016-04-23T05:39:42.532Z,18.16
2016-04-23T05:40:42.598Z,18.22
2016-04-23T05:41:42.648Z,18.19
2016-04-23T05:42:42.681Z,18.25
2016-04-23T05:43:42.762Z,18.26
2016-04-23T05:44:42.796Z,18.26
2016-04-23T05:45:42.845Z,18.18
2016-04-23T05:46:42.911Z,18.2
2016-04-23T05:47:42.975Z,18.23
2016-04-23T05:48:42.995Z,18.23
2016-04-23T05:49:43.028Z,18.2
2016-04-23T05:50:43.109Z,18.22
2016-04-23T05:51:43.144Z,18.23
2016-04-23T05:52:43.208Z,18.25
2016-04-23T05:53:43.274Z,18.22
2016-04-23T05:54:43.307Z,18.22
2016-04-23T05:55:42.607Z,18.2
2016-04-23T05:56:43.407Z,18.1
2016-04-23T05:57:43.471Z,18.26
2016-04-23T05:58:43.490Z,18.25
2016-04-23T05:59:43.571Z,18.2
2016-04-23T06:00:43.621Z,18.25
2016-04-23T06:01:43.654Z,18.23
2016-04-23T06:02:43.704Z,18.19
2016-04-23T06:03:43.753Z,18.28
2016-04-23T06:04:43.819Z,18.16
2016-04-23T06:05:43.868Z,18.2
2016-04-23T06:06:43.918Z,18.25
2016-04-23T06:07:43.999Z,18.22
2016-04-23T06:08:44.032Z,18.22
2016-04-23T06:09:44.067Z,18.26
2016-04-23T06:10:44.131Z,18.2
2016-04-23T06:11:44.181Z,18.22
2016-04-23T06:12:44.215Z,18.22
2016-04-23T06:13:44.280Z,18.2
2016-04-23T06:14:44.314Z,18.08
2016-04-23T06:15:44.379Z,18.25
2016-04-23T06:16:44.429Z,18.07
2016-04-23T06:17:44.478Z,18.2
2016-04-23T06:18:44.544Z,18.23
2016-04-23T06:19:44.608Z,18.22
2016-04-23T06:20:44.628Z,18.19
2016-04-23T06:21:44.678Z,18.26
2016-04-23T06:22:44.742Z,18.16
2016-04-23T06:23:44.776Z,18.19
2016-04-23T06:24:44.825Z,18.22
2016-04-23T06:25:44.891Z,18.22
2016-04-23T06:26:44.924Z,18.07
2016-04-23T06:27:44.990Z,18.19
2016-04-23T06:28:45.039Z,18.05
2016-04-23T06:29:44.339Z,18.13
2016-04-23T06:30:45.138Z,18.07
2016-04-23T06:31:45.188Z,18.15
2016-04-23T06:32:45.222Z,18.22
2016-04-23T06:33:45.302Z,18.19
2016-04-23T06:34:45.352Z,18.19
2016-04-23T06:35:45.401Z,18.16
2016-04-23T06:36:45.452Z,18.11
2016-04-23T06:37:45.518Z,18.11
2016-04-23T06:38:45.551Z,18.11
2016-04-23T06:39:45.601Z,18.16
2016-04-23T06:40:45.650Z,18.1
2016-04-23T06:41:45.699Z,18.11
2016-04-23T06:42:45.748Z,18.19
2016-04-23T06:43:45.783Z,18.13
2016-04-23T06:44:45.864Z,18.16
2016-04-23T06:45:45.898Z,18.15
2016-04-23T06:46:45.962Z,18.2
2016-04-23T06:47:46.012Z,18.15
2016-04-23T06:48:46.062Z,18.16
2016-04-23T06:49:46.127Z,18.13
2016-04-23T06:50:46.177Z,18.16
2016-04-23T06:51:46.241Z,18.11
2016-04-23T06:52:46.261Z,18.1
2016-04-23T06:53:46.326Z,18.15
2016-04-23T06:54:46.359Z,18.08
2016-04-23T06:55:46.425Z,18.18
2016-04-23T06:56:46.474Z,18.1
2016-04-23T06:57:46.508Z,18.19
2016-04-23T06:58:46.574Z,18.19
2016-04-23T06:59:46.638Z,18.2
2016-04-23T07:00:46.672Z,18.22
2016-04-23T07:01:46.722Z,18.2
2016-04-23T07:02:46.788Z,18.23
2016-04-23T07:03:46.821Z,18.2
2016-04-23T07:04:46.886Z,18.23
2016-04-23T07:05:46.935Z,18.2
2016-04-23T07:06:47.001Z,18.22
2016-04-23T07:07:47.034Z,18.22
2016-04-23T07:08:47.085Z,18.19
2016-04-23T07:09:47.135Z,18.15
2016-04-23T07:10:47.184Z,18.2
2016-04-23T07:11:47.234Z,18.19
2016-04-23T07:12:47.282Z,18.2
2016-04-23T07:13:47.364Z,18.18
2016-04-23T07:14:47.398Z,18.22
2016-04-23T07:15:47.431Z,18.23
2016-04-23T07:16:47.512Z,18.25
2016-04-23T07:17:47.562Z,18.26
2016-04-23T07:18:47.581Z,18.28
2016-04-23T07:19:47.630Z,18.28
2016-04-23T07:20:47.695Z,18.2
2016-04-23T07:21:47.760Z,18.2
2016-04-23T07:22:47.778Z,18.23
2016-04-23T07:23:47.828Z,18.26
2016-04-23T07:24:47.894Z,18.16
2016-04-23T07:25:47.942Z,18.22
2016-04-23T07:26:47.992Z,18.23
2016-04-23T07:27:48.072Z,18.2
2016-04-23T07:28:48.107Z,18.26
2016-04-23T07:29:48.141Z,18.25
2016-04-23T07:30:48.222Z,18.2
2016-04-23T07:31:48.271Z,18.23
2016-04-23T07:32:48.290Z,18.13
2016-04-23T07:33:48.214Z,18.15
2016-04-23T07:34:48.404Z,18.16
2016-04-23T07:35:48.454Z,18.15
2016-04-23T07:36:48.488Z,18.16
2016-04-23T07:37:48.569Z,18.15
2016-04-23T07:38:48.618Z,18.19
2016-04-23T07:39:48.652Z,18.15
2016-04-23T07:40:48.717Z,18.1
2016-04-23T07:41:48.814Z,18.16
2016-04-23T07:42:48.893Z,18.15
2016-04-23T07:43:48.236Z,18.13
2016-04-23T07:44:49.080Z,18.05
2016-04-23T07:45:49.173Z,18.19
2016-04-23T07:46:49.229Z,18.11
2016-04-23T07:47:49.311Z,18.18
2016-04-23T07:48:49.377Z,18.18
2016-04-23T07:49:49.443Z,18.08
2016-04-23T07:50:49.524Z,18.16
2016-04-23T07:51:49.582Z,18.1
2016-04-23T07:52:49.637Z,18.15
2016-04-23T07:53:49.693Z,18.16
2016-04-23T07:54:49.779Z,18.08
2016-04-23T07:55:49.818Z,18.15
2016-04-23T07:56:49.855Z,18.16
2016-04-23T07:57:49.907Z,18.16
2016-04-23T07:58:49.959Z,18.1
2016-04-23T07:59:50.026Z,18.11
2016-04-23T08:00:50.078Z,18.05
2016-04-23T08:01:50.112Z,18.11
2016-04-23T08:02:50.177Z,18.13
2016-04-23T08:03:50.245Z,18.22
2016-04-23T08:04:50.279Z,18.04
2016-04-23T08:05:50.346Z,18.11
2016-04-23T08:06:50.394Z,18.13
2016-04-23T08:07:50.414Z,18.15
2016-04-23T08:08:50.480Z,18.2
2016-04-23T08:09:50.528Z,18.07
2016-04-23T08:10:50.579Z,18.1
2016-04-23T08:11:50.628Z,18.04
2016-04-23T08:12:50.678Z,18.22
2016-04-23T08:13:50.728Z,18.13
2016-04-23T08:14:50.793Z,18.1
2016-04-23T08:15:50.827Z,18.13
2016-04-23T08:16:50.892Z,18.1
2016-04-23T08:17:50.957Z,18.1
2016-04-23T08:18:51.086Z,18.1
2016-04-23T08:19:51.056Z,18.13
2016-04-23T08:20:51.105Z,18.1
2016-04-23T08:21:51.155Z,18.08
2016-04-23T08:22:51.189Z,18.16
2016-04-23T08:23:51.255Z,18.1
2016-04-23T08:24:51.288Z,18.15
2016-04-23T08:25:51.370Z,18.2
2016-04-23T08:26:51.419Z,18.15
2016-04-23T08:27:51.453Z,18.18
2016-04-23T08:28:51.518Z,18.13
2016-04-23T08:29:51.557Z,18.2
2016-04-23T08:30:51.606Z,18.13
2016-04-23T08:31:51.657Z,18.19
2016-04-23T08:32:51.721Z,18.16
2016-04-23T08:33:51.756Z,18.22
2016-04-23T08:34:51.820Z,18.25
2016-04-23T08:35:51.854Z,18.15
2016-04-23T08:36:51.920Z,18.19
2016-04-23T08:37:51.953Z,18.18
2016-04-23T08:38:52.004Z,18.22
2016-04-23T08:39:52.068Z,18.1
2016-04-23T08:40:52.117Z,18.23
2016-04-23T08:41:52.168Z,18.22
2016-04-23T08:42:52.233Z,18.25
2016-04-23T08:43:52.282Z,18.2
2016-04-23T08:44:52.317Z,18.2
2016-04-23T08:45:52.381Z,18.11
2016-04-23T08:46:52.446Z,18.15
2016-04-23T08:47:52.464Z,18.2
2016-04-23T08:48:52.422Z,18.2
2016-04-23T08:49:52.564Z,18.16
2016-04-23T08:50:52.644Z,18.15
2016-04-23T08:51:52.695Z,18.19
2016-04-23T08:52:52.744Z,18.15
2016-04-23T08:53:52.777Z,18.19
2016-04-23T08:54:52.858Z,18.2
2016-04-23T08:55:52.877Z,18.22
2016-04-23T08:56:52.927Z,18.16
2016-04-23T08:57:52.977Z,18.18
2016-04-23T08:58:53.010Z,18.15
2016-04-23T08:59:53.060Z,18.19
2016-04-23T09:00:53.140Z,18.19
2016-04-23T09:01:53.174Z,18.19
2016-04-23T09:02:53.240Z,18.13
2016-04-23T09:03:53.304Z,18.11
2016-04-23T09:04:53.339Z,18.13
2016-04-23T09:05:53.404Z,18.13
2016-04-23T09:06:53.438Z,18.13
2016-04-23T09:07:53.487Z,18.15
2016-04-23T09:08:53.553Z,18.15
2016-04-23T09:09:53.602Z,18.1
2016-04-23T09:10:53.636Z,18.16
2016-04-23T09:11:53.701Z,18.05
2016-04-23T09:12:53.751Z,18.08
2016-04-23T09:13:53.784Z,18.04
2016-04-23T09:14:53.866Z,18.07
2016-04-23T09:15:53.915Z,18.11
2016-04-23T09:16:53.949Z,18.18
2016-04-23T09:17:53.999Z,18.11
2016-04-23T09:18:53.783Z,18.19
2016-04-23T09:19:54.083Z,18.11
2016-04-23T09:20:54.147Z,18.08
2016-04-23T09:21:54.213Z,18.04
2016-04-23T09:22:54.246Z,18.13
2016-04-23T09:23:54.343Z,18.1
2016-04-23T09:24:54.361Z,18.07
2016-04-23T09:25:55.536Z,18.08
2016-04-23T09:26:54.492Z,18.18
2016-04-23T09:27:54.510Z,18.11
2016-04-23T09:28:54.465Z,18.19
2016-04-23T09:29:54.625Z,18.07
2016-04-23T09:30:57.909Z,18.13
2016-04-23T09:31:54.599Z,18.11
2016-04-23T09:32:55.774Z,18.15
2016-04-23T09:33:55.167Z,18.15
2016-04-23T09:34:56.857Z,18.16
2016-04-23T09:35:54.954Z,18.18
2016-04-23T09:36:55.003Z,18.18
2016-04-23T09:37:55.053Z,18.2
2016-04-23T09:38:55.070Z,18.25
2016-04-23T09:39:55.073Z,18.26
2016-04-23T09:40:56.998Z,18.16
2016-04-23T09:41:55.157Z,18.25
2016-04-23T09:42:55.269Z,18.19
2016-04-23T09:43:55.319Z,18.19
2016-04-23T09:44:55.165Z,18.23
2016-04-23T09:45:56.058Z,18.18
2016-04-23T09:46:55.483Z,18.23
2016-04-23T09:47:55.548Z,18.2
2016-04-23T09:48:55.583Z,18.1
2016-04-23T09:49:55.617Z,18.23
2016-04-23T09:50:57.322Z,18.2
2016-04-23T09:51:55.731Z,18.13
2016-04-23T09:52:55.796Z,18.08
2016-04-23T09:53:55.830Z,18.15
2016-04-23T09:54:55.739Z,18.16
2016-04-23T09:55:55.960Z,18.04
2016-04-23T09:56:55.994Z,18.1
2016-04-23T09:57:56.122Z,18.08
2016-04-23T09:58:55.968Z,18.19
2016-04-23T09:59:55.862Z,18.13
2016-04-23T10:00:56.208Z,18.05
2016-04-23T10:01:56.274Z,18.1
2016-04-23T10:02:56.308Z,18.13
2016-04-23T10:03:56.341Z,18.18
2016-04-23T10:04:56.406Z,18.1
2016-04-23T10:05:56.643Z,18.18
2016-04-23T10:06:56.599Z,18.19
2016-04-23T10:07:56.227Z,18.16
2016-04-23T10:08:56.557Z,18.15
2016-04-23T10:09:56.670Z,18.03
2016-04-23T10:10:56.720Z,18.15
2016-04-23T10:11:58.097Z,18.08
2016-04-23T10:12:57.787Z,18.1
2016-04-23T10:13:56.884Z,18.11
2016-04-23T10:14:56.917Z,18
2016-04-23T10:15:59.201Z,18.15
2016-04-23T10:16:57.033Z,18.05
2016-04-23T10:17:57.050Z,18.16
2016-04-23T10:18:57.022Z,18.13
2016-04-23T10:19:57.166Z,18.15
2016-04-23T10:20:57.231Z,18.13
2016-04-23T10:21:57.124Z,18.16
2016-04-23T10:22:57.313Z,18.13
2016-04-23T10:23:57.383Z,18.18
2016-04-23T10:24:57.433Z,18.13
2016-04-23T10:25:57.481Z,18.19
2016-04-23T10:26:57.531Z,18.08
2016-04-23T10:27:57.580Z,18.18
2016-04-23T10:28:57.614Z,18.2
2016-04-23T10:29:57.680Z,18.16
2016-04-23T10:30:57.713Z,18.15
2016-04-23T10:31:57.794Z,18.08
2016-04-23T10:32:57.844Z,18.11
2016-04-23T10:33:57.894Z,18.11
2016-04-23T10:34:58.193Z,18.19
2016-04-23T10:35:57.993Z,18.15
2016-04-23T10:36:58.026Z,18.13
2016-04-23T10:37:58.092Z,18.07
2016-04-23T10:38:58.157Z,18.15
2016-04-23T10:39:58.175Z,18.18
2016-04-23T10:40:58.225Z,18.18
2016-04-23T10:41:58.290Z,18.2
2016-04-23T10:42:58.340Z,18.16
2016-04-23T10:43:58.389Z,18.19
2016-04-23T10:44:58.439Z,18.13
2016-04-23T10:45:58.473Z,18.05
2016-04-23T10:46:58.554Z,18.13
2016-04-23T10:47:58.587Z,18.13
2016-04-23T10:48:58.637Z,18.16
2016-04-23T10:49:59.015Z,18.11
2016-04-23T10:50:58.159Z,18.16
2016-04-23T10:51:58.801Z,18.08
2016-04-23T10:52:58.929Z,18.18
2016-04-23T10:53:58.916Z,18.16
2016-04-23T10:54:58.935Z,18.04
2016-04-23T10:55:59.000Z,18.15
2016-04-23T10:56:59.064Z,18.15
2016-04-23T10:57:59.130Z,18.13
2016-04-23T10:58:59.164Z,18.16
2016-04-23T10:59:58.464Z,18.15
2016-04-23T11:00:59.263Z,18.13
2016-04-23T11:01:59.313Z,18.2
2016-04-23T11:02:59.377Z,18.16
2016-04-23T11:03:59.396Z,18.13
2016-04-23T11:04:59.258Z,18.03
2016-04-23T11:05:59.511Z,18.16
2016-04-23T11:06:59.561Z,18.15
2016-04-23T11:07:59.610Z,18.15
2016-04-23T11:08:59.676Z,18.1
2016-04-23T11:09:59.693Z,18.11
2016-04-23T11:10:59.790Z,18.08
2016-04-23T11:11:59.824Z,18.08
2016-04-23T11:12:59.858Z,18.08
2016-04-23T11:13:59.924Z,18.05
2016-04-23T11:14:59.972Z,18.07
2016-04-23T11:16:00.022Z,18.13
2016-04-23T11:17:00.087Z,18.01
2016-04-23T11:18:00.137Z,18.07
2016-04-23T11:19:00.171Z,18.05
2016-04-23T11:20:01.409Z,18.08
2016-04-23T11:21:00.317Z,18.04
2016-04-23T11:22:00.320Z,18.1
2016-04-23T11:23:00.384Z,18.13
2016-04-23T11:24:00.434Z,18.05
2016-04-23T11:25:00.500Z,18.16
2016-04-23T11:26:00.549Z,18.08
2016-04-23T11:27:00.427Z,18.13
2016-04-23T11:28:00.648Z,18.07
2016-04-23T11:29:00.698Z,18.16
2016-04-23T11:30:00.732Z,18.05
2016-04-23T11:31:00.781Z,18.08
2016-04-23T11:32:00.847Z,18.08
2016-04-23T11:33:00.896Z,18.04
2016-04-23T11:34:00.930Z,18.03
2016-04-23T11:35:02.011Z,18.07
2016-04-23T11:36:01.061Z,18.13
2016-04-23T11:37:01.110Z,18.15
2016-04-23T11:38:01.144Z,18.15
2016-04-23T11:39:00.460Z,18
2016-04-23T11:40:01.259Z,18.07
2016-04-23T11:41:01.293Z,18.04
2016-04-23T11:42:01.342Z,18.07
2016-04-23T11:43:01.407Z,18.1
2016-04-23T11:44:01.441Z,18.11
2016-04-23T11:45:01.507Z,18.11
2016-04-23T11:46:01.572Z,18.03
2016-04-23T11:47:01.590Z,18.05
2016-04-23T11:48:01.655Z,18.1
2016-04-23T11:49:01.721Z,18.08
2016-04-23T11:50:02.832Z,18.04
2016-04-23T11:51:01.820Z,18.03
2016-04-23T11:52:01.870Z,18.04
2016-04-23T11:53:01.935Z,18.1
2016-04-23T11:54:01.968Z,18.07
2016-04-23T11:55:02.002Z,18.07
2016-04-23T11:56:02.067Z,18.1
2016-04-23T11:57:02.101Z,18.15
2016-04-23T11:58:02.151Z,18.08
2016-04-23T11:59:02.216Z,18.08
2016-04-23T12:00:02.266Z,18.08
2016-04-23T12:01:02.316Z,18.07
2016-04-23T12:02:02.365Z,18.07
2016-04-23T12:03:02.430Z,18.11
2016-04-23T12:04:02.480Z,18.1
2016-04-23T12:05:02.388Z,18.16
2016-04-23T12:06:02.579Z,18.08
2016-04-23T12:07:02.488Z,18.15
2016-04-23T12:08:02.678Z,18.1
2016-04-23T12:09:02.727Z,18.1
2016-04-23T12:10:02.777Z,18.08
2016-04-23T12:11:02.827Z,18.07
2016-04-23T12:12:02.860Z,18.1
2016-04-23T12:13:02.926Z,18.07
2016-04-23T12:14:03.350Z,18.1
2016-04-23T12:15:03.040Z,18.04
2016-04-23T12:16:03.074Z,18.15
2016-04-23T12:17:03.124Z,18.1
2016-04-23T12:18:03.189Z,18.04
2016-04-23T12:19:03.223Z,18.18
2016-04-23T12:20:03.319Z,18.08
2016-04-23T12:21:03.354Z,18.18
2016-04-23T12:22:03.403Z,18.04
2016-04-23T12:23:03.421Z,18.08
2016-04-23T12:24:03.502Z,18.1
2016-04-23T12:25:03.551Z,18.05
2016-04-23T12:26:03.586Z,18.11
2016-04-23T12:27:03.651Z,18.08
2016-04-23T12:28:03.685Z,18.1
2016-04-23T12:29:03.750Z,18.07
2016-04-23T12:30:03.799Z,18.13
2016-04-23T12:31:03.833Z,18.07
2016-04-23T12:32:03.899Z,18.07
2016-04-23T12:33:03.964Z,18.1
2016-04-23T12:34:03.998Z,18.13
2016-04-23T12:35:04.532Z,18.1
2016-04-23T12:36:04.128Z,18.1
2016-04-23T12:37:04.131Z,18.07
2016-04-23T12:38:04.180Z,18.05
2016-04-23T12:39:04.277Z,18.04
2016-04-23T12:40:04.295Z,18.1
2016-04-23T12:41:04.344Z,18.16
2016-04-23T12:42:04.410Z,18.08
2016-04-23T12:43:04.460Z,18.08
2016-04-23T12:44:04.493Z,18.13
2016-04-23T12:45:04.559Z,18.13
2016-04-23T12:46:04.624Z,18.08
2016-04-23T12:47:04.643Z,18.01
2016-04-23T12:48:04.723Z,18.08
2016-04-23T12:49:04.773Z,18.03
2016-04-23T12:50:06.353Z,18.07
2016-04-23T12:51:04.887Z,18.05
2016-04-23T12:52:04.906Z,18.1
2016-04-23T12:53:04.987Z,18.07
2016-04-23T12:54:05.036Z,18.08
2016-04-23T12:55:05.054Z,18.05
2016-04-23T12:56:05.135Z,18.01
2016-04-23T12:57:05.184Z,18.03